sensor_id;sensor_type;location;lat;lon;timestamp;P1;durP1;ratioP1;P2;durP2;ratioP2
39078;SDS011;24829;49.208;12.080;2023-05-10T00:01:45;5.80;;;4.20;;
39078;SDS011;24829;49.208;12.080;2023-05-10T00:04:11;5.63;;;4.35;;
39078;SDS011;24829;49.208;12.080;2023-05-10T00:06:36;6.72;;;4.22;;
39078;SDS011;24829;49.208;12.080;2023-05-10T00:09:02;7.60;;;5.47;;
39078;SDS011;24829;49.208;12.080;2023-05-10T00:11:28;5.22;;;4.43;;
39078;SDS011;24829;49.208;12.080;2023-05-10T00:13:54;8.45;;;4.55;;
39078;SDS011;24829;49.208;12.080;2023-05-10T00:16:19;5.35;;;3.92;;
39078;SDS011;24829;49.208;12.080;2023-05-10T00:18:45;5.72;;;4.75;;
39078;SDS011;24829;49.208;12.080;2023-05-10T00:21:10;6.85;;;4.93;;
39078;SDS011;24829;49.208;12.080;2023-05-10T00:23:36;6.45;;;4.70;;
39078;SDS011;24829;49.208;12.080;2023-05-10T00:26:02;7.22;;;4.00;;
39078;SDS011;24829;49.208;12.080;2023-05-10T00:28:28;9.45;;;4.30;;
39078;SDS011;24829;49.208;12.080;2023-05-10T00:30:54;9.98;;;4.65;;
39078;SDS011;24829;49.208;12.080;2023-05-10T00:33:20;6.50;;;4.85;;
39078;SDS011;24829;49.208;12.080;2023-05-10T00:35:46;4.75;;;4.25;;
39078;SDS011;24829;49.208;12.080;2023-05-10T00:38:11;6.20;;;4.28;;
39078;SDS011;24829;49.208;12.080;2023-05-10T00:40:37;5.03;;;4.25;;
39078;SDS011;24829;49.208;12.080;2023-05-10T00:43:02;13.63;;;4.55;;
39078;SDS011;24829;49.208;12.080;2023-05-10T00:45:29;7.78;;;3.75;;
39078;SDS011;24829;49.208;12.080;2023-05-10T00:47:56;5.70;;;4.15;;
39078;SDS011;24829;49.208;12.080;2023-05-10T00:50:22;7.40;;;4.18;;
39078;SDS011;24829;49.208;12.080;2023-05-10T00:52:48;6.95;;;3.75;;
39078;SDS011;24829;49.208;12.080;2023-05-10T00:55:14;5.63;;;3.42;;
39078;SDS011;24829;49.208;12.080;2023-05-10T00:57:39;5.45;;;3.30;;
39078;SDS011;24829;49.208;12.080;2023-05-10T01:00:06;6.68;;;3.47;;
39078;SDS011;24829;49.208;12.080;2023-05-10T01:02:33;6.22;;;4.45;;
39078;SDS011;24829;49.208;12.080;2023-05-10T01:04:59;5.47;;;3.63;;
39078;SDS011;24829;49.208;12.080;2023-05-10T01:07:26;7.82;;;5.13;;
39078;SDS011;24829;49.208;12.080;2023-05-10T01:09:51;4.72;;;3.97;;
39078;SDS011;24829;49.208;12.080;2023-05-10T01:12:17;5.60;;;4.13;;
39078;SDS011;24829;49.208;12.080;2023-05-10T01:14:43;5.82;;;3.83;;
39078;SDS011;24829;49.208;12.080;2023-05-10T01:17:08;6.95;;;3.95;;
39078;SDS011;24829;49.208;12.080;2023-05-10T01:19:35;5.68;;;3.83;;
39078;SDS011;24829;49.208;12.080;2023-05-10T01:24:46;5.15;;;3.78;;
39078;SDS011;24829;49.208;12.080;2023-05-10T01:27:40;6.03;;;4.32;;
39078;SDS011;24829;49.208;12.080;2023-05-10T01:33:24;5.13;;;3.10;;
39078;SDS011;24829;49.208;12.080;2023-05-10T01:36:02;4.20;;;3.50;;
39078;SDS011;24829;49.208;12.080;2023-05-10T01:41:25;6.07;;;3.45;;
39078;SDS011;24829;49.208;12.080;2023-05-10T01:46:41;6.47;;;3.20;;
39078;SDS011;24829;49.208;12.080;2023-05-10T01:49:41;6.35;;;3.97;;
39078;SDS011;24829;49.208;12.080;2023-05-10T01:52:11;7.32;;;3.95;;
39078;SDS011;24829;49.208;12.080;2023-05-10T01:54:41;4.85;;;3.55;;
39078;SDS011;24829;49.208;12.080;2023-05-10T01:57:13;10.00;;;3.75;;
39078;SDS011;24829;49.208;12.080;2023-05-10T01:59:41;5.22;;;2.97;;
39078;SDS011;24829;49.208;12.080;2023-05-10T02:02:10;4.05;;;3.13;;
39078;SDS011;24829;49.208;12.080;2023-05-10T02:04:37;4.05;;;2.90;;
39078;SDS011;24829;49.208;12.080;2023-05-10T02:07:04;5.03;;;3.67;;
39078;SDS011;24829;49.208;12.080;2023-05-10T02:09:32;4.55;;;3.30;;
39078;SDS011;24829;49.208;12.080;2023-05-10T02:11:59;7.00;;;3.17;;
39078;SDS011;24829;49.208;12.080;2023-05-10T02:14:28;9.95;;;3.15;;
39078;SDS011;24829;49.208;12.080;2023-05-10T02:16:57;5.93;;;3.45;;
39078;SDS011;24829;49.208;12.080;2023-05-10T02:19:24;4.18;;;3.20;;
39078;SDS011;24829;49.208;12.080;2023-05-10T02:21:51;9.68;;;3.13;;
39078;SDS011;24829;49.208;12.080;2023-05-10T02:24:17;5.50;;;4.07;;
39078;SDS011;24829;49.208;12.080;2023-05-10T02:26:44;4.63;;;3.58;;
39078;SDS011;24829;49.208;12.080;2023-05-10T02:29:12;5.82;;;3.42;;
39078;SDS011;24829;49.208;12.080;2023-05-10T02:31:39;5.50;;;3.45;;
39078;SDS011;24829;49.208;12.080;2023-05-10T02:34:08;6.35;;;3.83;;
39078;SDS011;24829;49.208;12.080;2023-05-10T02:36:36;9.48;;;3.97;;
39078;SDS011;24829;49.208;12.080;2023-05-10T02:39:05;4.70;;;3.97;;
39078;SDS011;24829;49.208;12.080;2023-05-10T02:41:34;5.28;;;3.67;;
39078;SDS011;24829;49.208;12.080;2023-05-10T02:44:01;5.10;;;3.65;;
39078;SDS011;24829;49.208;12.080;2023-05-10T02:46:28;7.38;;;4.53;;
39078;SDS011;24829;49.208;12.080;2023-05-10T02:48:54;7.07;;;4.43;;
39078;SDS011;24829;49.208;12.080;2023-05-10T02:51:20;8.20;;;4.80;;
39078;SDS011;24829;49.208;12.080;2023-05-10T02:53:50;5.65;;;4.10;;
39078;SDS011;24829;49.208;12.080;2023-05-10T02:56:23;7.55;;;4.35;;
39078;SDS011;24829;49.208;12.080;2023-05-10T02:58:52;6.63;;;4.65;;
39078;SDS011;24829;49.208;12.080;2023-05-10T03:01:18;6.35;;;4.50;;
39078;SDS011;24829;49.208;12.080;2023-05-10T03:03:43;6.82;;;4.75;;
39078;SDS011;24829;49.208;12.080;2023-05-10T03:06:09;5.68;;;5.05;;
39078;SDS011;24829;49.208;12.080;2023-05-10T03:08:34;7.40;;;4.57;;
39078;SDS011;24829;49.208;12.080;2023-05-10T03:13:56;7.43;;;4.90;;
39078;SDS011;24829;49.208;12.080;2023-05-10T03:16:41;7.68;;;4.57;;
39078;SDS011;24829;49.208;12.080;2023-05-10T03:19:24;6.13;;;4.55;;
39078;SDS011;24829;49.208;12.080;2023-05-10T03:21:55;12.30;;;5.22;;
39078;SDS011;24829;49.208;12.080;2023-05-10T03:24:25;5.60;;;4.65;;
39078;SDS011;24829;49.208;12.080;2023-05-10T03:26:54;9.60;;;5.75;;
39078;SDS011;24829;49.208;12.080;2023-05-10T03:29:22;8.35;;;5.32;;
39078;SDS011;24829;49.208;12.080;2023-05-10T03:31:51;6.50;;;5.38;;
39078;SDS011;24829;49.208;12.080;2023-05-10T03:34:16;8.10;;;5.50;;
39078;SDS011;24829;49.208;12.080;2023-05-10T03:36:48;8.82;;;5.18;;
39078;SDS011;24829;49.208;12.080;2023-05-10T03:39:13;8.00;;;5.68;;
39078;SDS011;24829;49.208;12.080;2023-05-10T03:41:39;7.63;;;5.72;;
39078;SDS011;24829;49.208;12.080;2023-05-10T03:44:05;8.25;;;5.63;;
39078;SDS011;24829;49.208;12.080;2023-05-10T03:46:30;9.75;;;6.30;;
39078;SDS011;24829;49.208;12.080;2023-05-10T03:48:56;7.45;;;5.38;;
39078;SDS011;24829;49.208;12.080;2023-05-10T03:51:21;11.75;;;6.43;;
39078;SDS011;24829;49.208;12.080;2023-05-10T03:53:47;8.52;;;7.07;;
39078;SDS011;24829;49.208;12.080;2023-05-10T03:56:12;12.25;;;7.72;;
39078;SDS011;24829;49.208;12.080;2023-05-10T03:58:38;10.38;;;6.57;;
39078;SDS011;24829;49.208;12.080;2023-05-10T04:01:03;12.32;;;7.47;;
39078;SDS011;24829;49.208;12.080;2023-05-10T04:03:29;9.77;;;7.20;;
39078;SDS011;24829;49.208;12.080;2023-05-10T04:05:58;10.82;;;6.82;;
39078;SDS011;24829;49.208;12.080;2023-05-10T04:08:25;9.10;;;7.13;;
39078;SDS011;24829;49.208;12.080;2023-05-10T04:10:51;9.73;;;7.57;;
39078;SDS011;24829;49.208;12.080;2023-05-10T04:13:16;9.75;;;7.20;;
39078;SDS011;24829;49.208;12.080;2023-05-10T04:15:42;10.68;;;6.97;;
39078;SDS011;24829;49.208;12.080;2023-05-10T04:18:08;13.65;;;7.93;;
39078;SDS011;24829;49.208;12.080;2023-05-10T04:20:35;10.55;;;7.93;;
39078;SDS011;24829;49.208;12.080;2023-05-10T04:23:01;8.77;;;7.95;;
39078;SDS011;24829;49.208;12.080;2023-05-10T04:25:26;11.00;;;7.97;;
39078;SDS011;24829;49.208;12.080;2023-05-10T04:27:52;11.70;;;8.38;;
39078;SDS011;24829;49.208;12.080;2023-05-10T04:30:18;9.40;;;7.03;;
39078;SDS011;24829;49.208;12.080;2023-05-10T04:32:43;10.23;;;7.72;;
39078;SDS011;24829;49.208;12.080;2023-05-10T04:35:09;9.68;;;6.80;;
39078;SDS011;24829;49.208;12.080;2023-05-10T04:37:35;14.18;;;8.73;;
39078;SDS011;24829;49.208;12.080;2023-05-10T04:40:01;13.77;;;7.82;;
39078;SDS011;24829;49.208;12.080;2023-05-10T04:42:28;14.35;;;8.35;;
39078;SDS011;24829;49.208;12.080;2023-05-10T04:44:54;13.25;;;8.13;;
39078;SDS011;24829;49.208;12.080;2023-05-10T04:47:19;13.98;;;9.02;;
39078;SDS011;24829;49.208;12.080;2023-05-10T04:49:45;13.50;;;8.50;;
39078;SDS011;24829;49.208;12.080;2023-05-10T04:52:10;12.65;;;9.32;;
39078;SDS011;24829;49.208;12.080;2023-05-10T04:54:36;42.45;;;32.95;;
39078;SDS011;24829;49.208;12.080;2023-05-10T04:57:02;13.40;;;11.93;;
39078;SDS011;24829;49.208;12.080;2023-05-10T04:59:27;13.95;;;9.85;;
39078;SDS011;24829;49.208;12.080;2023-05-10T05:01:53;14.27;;;9.75;;
39078;SDS011;24829;49.208;12.080;2023-05-10T05:04:18;14.35;;;10.57;;
39078;SDS011;24829;49.208;12.080;2023-05-10T05:06:44;13.05;;;10.25;;
39078;SDS011;24829;49.208;12.080;2023-05-10T05:09:09;14.40;;;10.48;;
39078;SDS011;24829;49.208;12.080;2023-05-10T05:11:35;13.30;;;11.20;;
39078;SDS011;24829;49.208;12.080;2023-05-10T05:14:01;17.23;;;11.27;;
39078;SDS011;24829;49.208;12.080;2023-05-10T05:16:26;14.25;;;10.57;;
39078;SDS011;24829;49.208;12.080;2023-05-10T05:18:52;16.63;;;10.85;;
39078;SDS011;24829;49.208;12.080;2023-05-10T05:21:18;13.18;;;10.57;;
39078;SDS011;24829;49.208;12.080;2023-05-10T05:23:44;14.27;;;9.85;;
39078;SDS011;24829;49.208;12.080;2023-05-10T05:26:10;16.33;;;10.70;;
39078;SDS011;24829;49.208;12.080;2023-05-10T05:28:36;16.10;;;9.60;;
39078;SDS011;24829;49.208;12.080;2023-05-10T05:31:05;13.80;;;10.75;;
39078;SDS011;24829;49.208;12.080;2023-05-10T05:33:33;13.35;;;9.93;;
39078;SDS011;24829;49.208;12.080;2023-05-10T05:36:03;12.90;;;10.20;;
39078;SDS011;24829;49.208;12.080;2023-05-10T05:38:30;11.25;;;9.38;;
39078;SDS011;24829;49.208;12.080;2023-05-10T05:40:56;12.43;;;10.80;;
39078;SDS011;24829;49.208;12.080;2023-05-10T05:43:21;16.40;;;10.82;;
39078;SDS011;24829;49.208;12.080;2023-05-10T05:45:47;12.15;;;10.23;;
39078;SDS011;24829;49.208;12.080;2023-05-10T05:48:13;15.80;;;12.00;;
39078;SDS011;24829;49.208;12.080;2023-05-10T05:50:38;14.60;;;11.63;;
39078;SDS011;24829;49.208;12.080;2023-05-10T05:53:04;16.27;;;11.85;;
39078;SDS011;24829;49.208;12.080;2023-05-10T05:55:29;16.35;;;11.23;;
39078;SDS011;24829;49.208;12.080;2023-05-10T05:57:56;14.73;;;12.27;;
39078;SDS011;24829;49.208;12.080;2023-05-10T06:00:22;20.30;;;12.63;;
39078;SDS011;24829;49.208;12.080;2023-05-10T06:02:48;18.40;;;11.90;;
39078;SDS011;24829;49.208;12.080;2023-05-10T06:05:13;13.25;;;11.38;;
39078;SDS011;24829;49.208;12.080;2023-05-10T06:07:39;16.15;;;11.30;;
39078;SDS011;24829;49.208;12.080;2023-05-10T06:10:07;13.45;;;11.77;;
39078;SDS011;24829;49.208;12.080;2023-05-10T06:12:33;16.13;;;12.27;;
39078;SDS011;24829;49.208;12.080;2023-05-10T06:14:59;19.75;;;13.18;;
39078;SDS011;24829;49.208;12.080;2023-05-10T06:17:24;19.15;;;12.68;;
39078;SDS011;24829;49.208;12.080;2023-05-10T06:19:50;15.60;;;11.32;;
39078;SDS011;24829;49.208;12.080;2023-05-10T06:22:15;14.05;;;10.55;;
39078;SDS011;24829;49.208;12.080;2023-05-10T06:24:41;16.48;;;11.90;;
39078;SDS011;24829;49.208;12.080;2023-05-10T06:27:06;16.33;;;11.75;;
39078;SDS011;24829;49.208;12.080;2023-05-10T06:29:32;16.60;;;12.63;;
39078;SDS011;24829;49.208;12.080;2023-05-10T06:31:58;14.80;;;10.85;;
39078;SDS011;24829;49.208;12.080;2023-05-10T06:34:23;14.32;;;11.85;;
39078;SDS011;24829;49.208;12.080;2023-05-10T06:36:49;17.67;;;13.55;;
39078;SDS011;24829;49.208;12.080;2023-05-10T06:39:15;17.98;;;12.15;;
39078;SDS011;24829;49.208;12.080;2023-05-10T06:41:41;16.25;;;13.05;;
39078;SDS011;24829;49.208;12.080;2023-05-10T06:44:06;15.10;;;12.52;;
39078;SDS011;24829;49.208;12.080;2023-05-10T06:46:32;15.80;;;12.25;;
39078;SDS011;24829;49.208;12.080;2023-05-10T06:48:57;15.55;;;12.18;;
39078;SDS011;24829;49.208;12.080;2023-05-10T06:51:23;17.05;;;12.68;;
39078;SDS011;24829;49.208;12.080;2023-05-10T06:53:49;17.48;;;12.50;;
39078;SDS011;24829;49.208;12.080;2023-05-10T06:56:14;13.95;;;12.45;;
39078;SDS011;24829;49.208;12.080;2023-05-10T06:58:39;16.77;;;12.07;;
39078;SDS011;24829;49.208;12.080;2023-05-10T07:01:05;17.63;;;12.55;;
39078;SDS011;24829;49.208;12.080;2023-05-10T07:03:31;16.23;;;13.02;;
39078;SDS011;24829;49.208;12.080;2023-05-10T07:06:00;15.95;;;13.45;;
39078;SDS011;24829;49.208;12.080;2023-05-10T07:08:28;16.05;;;13.65;;
39078;SDS011;24829;49.208;12.080;2023-05-10T07:10:59;16.55;;;13.18;;
39078;SDS011;24829;49.208;12.080;2023-05-10T07:13:28;17.35;;;13.55;;
39078;SDS011;24829;49.208;12.080;2023-05-10T07:15:55;14.80;;;12.55;;
39078;SDS011;24829;49.208;12.080;2023-05-10T07:18:20;18.00;;;13.95;;
39078;SDS011;24829;49.208;12.080;2023-05-10T07:20:46;19.05;;;13.25;;
39078;SDS011;24829;49.208;12.080;2023-05-10T07:23:11;17.92;;;12.68;;
39078;SDS011;24829;49.208;12.080;2023-05-10T07:25:37;18.45;;;12.07;;
39078;SDS011;24829;49.208;12.080;2023-05-10T07:28:03;15.52;;;12.75;;
39078;SDS011;24829;49.208;12.080;2023-05-10T07:30:28;18.92;;;12.90;;
39078;SDS011;24829;49.208;12.080;2023-05-10T07:32:54;18.58;;;12.45;;
39078;SDS011;24829;49.208;12.080;2023-05-10T07:35:20;19.42;;;13.02;;
39078;SDS011;24829;49.208;12.080;2023-05-10T07:37:45;14.65;;;11.45;;
39078;SDS011;24829;49.208;12.080;2023-05-10T07:40:11;20.90;;;13.90;;
39078;SDS011;24829;49.208;12.080;2023-05-10T07:42:36;16.33;;;11.80;;
39078;SDS011;24829;49.208;12.080;2023-05-10T07:45:03;16.92;;;12.68;;
39078;SDS011;24829;49.208;12.080;2023-05-10T07:47:29;18.08;;;11.45;;
39078;SDS011;24829;49.208;12.080;2023-05-10T07:49:54;14.98;;;12.23;;
39078;SDS011;24829;49.208;12.080;2023-05-10T07:52:20;15.63;;;12.13;;
39078;SDS011;24829;49.208;12.080;2023-05-10T07:54:45;21.42;;;13.00;;
39078;SDS011;24829;49.208;12.080;2023-05-10T07:57:11;12.52;;;10.13;;
39078;SDS011;24829;49.208;12.080;2023-05-10T07:59:39;13.13;;;11.20;;
39078;SDS011;24829;49.208;12.080;2023-05-10T08:02:05;14.63;;;10.93;;
39078;SDS011;24829;49.208;12.080;2023-05-10T08:04:31;10.02;;;8.68;;
39078;SDS011;24829;49.208;12.080;2023-05-10T08:06:56;11.32;;;8.90;;
39078;SDS011;24829;49.208;12.080;2023-05-10T08:09:22;11.80;;;9.43;;
39078;SDS011;24829;49.208;12.080;2023-05-10T08:11:48;11.52;;;9.40;;
39078;SDS011;24829;49.208;12.080;2023-05-10T08:14:15;9.60;;;8.32;;
39078;SDS011;24829;49.208;12.080;2023-05-10T08:16:41;12.38;;;9.45;;
39078;SDS011;24829;49.208;12.080;2023-05-10T08:19:07;13.32;;;10.25;;
39078;SDS011;24829;49.208;12.080;2023-05-10T08:21:32;10.98;;;9.50;;
39078;SDS011;24829;49.208;12.080;2023-05-10T08:23:58;14.88;;;8.32;;
39078;SDS011;24829;49.208;12.080;2023-05-10T08:26:23;12.65;;;9.90;;
39078;SDS011;24829;49.208;12.080;2023-05-10T08:28:49;10.40;;;8.48;;
39078;SDS011;24829;49.208;12.080;2023-05-10T08:31:15;13.60;;;7.70;;
39078;SDS011;24829;49.208;12.080;2023-05-10T08:33:40;9.35;;;8.32;;
39078;SDS011;24829;49.208;12.080;2023-05-10T08:36:06;11.00;;;8.02;;
39078;SDS011;24829;49.208;12.080;2023-05-10T08:38:32;9.82;;;8.27;;
39078;SDS011;24829;49.208;12.080;2023-05-10T08:40:57;5.63;;;4.75;;
39078;SDS011;24829;49.208;12.080;2023-05-10T08:43:27;5.85;;;2.45;;
39078;SDS011;24829;49.208;12.080;2023-05-10T08:45:56;4.90;;;3.90;;
39078;SDS011;24829;49.208;12.080;2023-05-10T08:48:28;5.90;;;4.13;;
39078;SDS011;24829;49.208;12.080;2023-05-10T08:50:55;4.82;;;3.83;;
39078;SDS011;24829;49.208;12.080;2023-05-10T08:53:24;5.35;;;2.45;;
39078;SDS011;24829;49.208;12.080;2023-05-10T08:55:52;4.95;;;3.38;;
39078;SDS011;24829;49.208;12.080;2023-05-10T08:58:18;5.97;;;2.95;;
39078;SDS011;24829;49.208;12.080;2023-05-10T09:00:44;2.70;;;2.00;;
39078;SDS011;24829;49.208;12.080;2023-05-10T09:03:10;4.50;;;2.00;;
39078;SDS011;24829;49.208;12.080;2023-05-10T09:05:36;5.43;;;2.35;;
39078;SDS011;24829;49.208;12.080;2023-05-10T09:08:02;3.70;;;1.38;;
39078;SDS011;24829;49.208;12.080;2023-05-10T09:10:28;1.92;;;1.10;;
39078;SDS011;24829;49.208;12.080;2023-05-10T09:12:58;1.60;;;0.70;;
39078;SDS011;24829;49.208;12.080;2023-05-10T09:15:24;1.42;;;0.60;;
39078;SDS011;24829;49.208;12.080;2023-05-10T09:17:49;1.73;;;0.45;;
39078;SDS011;24829;49.208;12.080;2023-05-10T09:20:15;2.15;;;0.40;;
39078;SDS011;24829;49.208;12.080;2023-05-10T09:22:42;2.30;;;0.57;;
39078;SDS011;24829;49.208;12.080;2023-05-10T09:25:12;1.13;;;0.40;;
39078;SDS011;24829;49.208;12.080;2023-05-10T09:27:44;0.70;;;0.43;;
39078;SDS011;24829;49.208;12.080;2023-05-10T09:30:11;0.98;;;0.50;;
39078;SDS011;24829;49.208;12.080;2023-05-10T09:32:50;1.75;;;0.52;;
39078;SDS011;24829;49.208;12.080;2023-05-10T09:35:20;0.50;;;0.43;;
39078;SDS011;24829;49.208;12.080;2023-05-10T09:37:48;1.10;;;0.40;;
39078;SDS011;24829;49.208;12.080;2023-05-10T09:40:20;0.57;;;0.50;;
39078;SDS011;24829;49.208;12.080;2023-05-10T09:45:23;1.00;;;0.50;;
39078;SDS011;24829;49.208;12.080;2023-05-10T09:47:50;3.33;;;0.70;;
39078;SDS011;24829;49.208;12.080;2023-05-10T09:50:16;0.73;;;0.50;;
39078;SDS011;24829;49.208;12.080;2023-05-10T09:52:48;0.60;;;0.40;;
39078;SDS011;24829;49.208;12.080;2023-05-10T09:55:19;0.70;;;0.40;;
39078;SDS011;24829;49.208;12.080;2023-05-10T09:57:46;1.15;;;0.50;;
39078;SDS011;24829;49.208;12.080;2023-05-10T10:00:17;0.60;;;0.40;;
39078;SDS011;24829;49.208;12.080;2023-05-10T10:02:55;0.95;;;0.50;;
39078;SDS011;24829;49.208;12.080;2023-05-10T10:05:29;1.10;;;0.40;;
39078;SDS011;24829;49.208;12.080;2023-05-10T10:07:59;1.00;;;0.40;;
39078;SDS011;24829;49.208;12.080;2023-05-10T10:10:29;0.70;;;0.60;;
39078;SDS011;24829;49.208;12.080;2023-05-10T10:12:56;1.58;;;1.17;;
39078;SDS011;24829;49.208;12.080;2023-05-10T10:15:22;5.82;;;4.20;;
39078;SDS011;24829;49.208;12.080;2023-05-10T10:17:48;11.38;;;8.95;;
39078;SDS011;24829;49.208;12.080;2023-05-10T10:20:15;16.67;;;11.52;;
39078;SDS011;24829;49.208;12.080;2023-05-10T10:22:42;2.33;;;1.70;;
39078;SDS011;24829;49.208;12.080;2023-05-10T10:25:11;3.10;;;0.73;;
39078;SDS011;24829;49.208;12.080;2023-05-10T10:27:53;0.88;;;0.60;;
39078;SDS011;24829;49.208;12.080;2023-05-10T10:30:41;2.83;;;2.42;;
39078;SDS011;24829;49.208;12.080;2023-05-10T10:36:15;1.10;;;0.80;;
39078;SDS011;24829;49.208;12.080;2023-05-10T10:44:24;1.48;;;0.40;;
39078;SDS011;24829;49.208;12.080;2023-05-10T10:46:58;0.77;;;0.50;;
39078;SDS011;24829;49.208;12.080;2023-05-10T10:50:02;0.88;;;0.40;;
39078;SDS011;24829;49.208;12.080;2023-05-10T10:52:36;1.40;;;0.50;;
39078;SDS011;24829;49.208;12.080;2023-05-10T10:55:05;0.70;;;0.47;;
39078;SDS011;24829;49.208;12.080;2023-05-10T11:00:27;2.88;;;0.95;;
39078;SDS011;24829;49.208;12.080;2023-05-10T11:03:11;0.68;;;0.50;;
39078;SDS011;24829;49.208;12.080;2023-05-10T11:05:47;1.13;;;0.70;;
39078;SDS011;24829;49.208;12.080;2023-05-10T11:15:57;0.63;;;0.40;;
39078;SDS011;24829;49.208;12.080;2023-05-10T11:18:28;1.45;;;0.63;;
39078;SDS011;24829;49.208;12.080;2023-05-10T11:20:58;0.85;;;0.40;;
39078;SDS011;24829;49.208;12.080;2023-05-10T11:26:07;2.90;;;0.40;;
39078;SDS011;24829;49.208;12.080;2023-05-10T11:28:41;1.27;;;0.40;;
39078;SDS011;24829;49.208;12.080;2023-05-10T11:31:07;1.70;;;0.60;;
39078;SDS011;24829;49.208;12.080;2023-05-10T11:33:42;0.82;;;0.43;;
39078;SDS011;24829;49.208;12.080;2023-05-10T11:36:12;3.10;;;1.13;;
39078;SDS011;24829;49.208;12.080;2023-05-10T11:38:39;1.58;;;1.02;;
39078;SDS011;24829;49.208;12.080;2023-05-10T11:41:04;3.67;;;0.82;;
39078;SDS011;24829;49.208;12.080;2023-05-10T11:43:30;2.00;;;1.10;;
39078;SDS011;24829;49.208;12.080;2023-05-10T11:45:56;5.13;;;1.00;;
39078;SDS011;24829;49.208;12.080;2023-05-10T11:48:21;3.85;;;1.25;;
39078;SDS011;24829;49.208;12.080;2023-05-10T11:50:49;2.53;;;1.10;;
39078;SDS011;24829;49.208;12.080;2023-05-10T11:53:15;4.72;;;1.38;;
39078;SDS011;24829;49.208;12.080;2023-05-10T11:55:40;3.15;;;1.67;;
39078;SDS011;24829;49.208;12.080;2023-05-10T11:58:06;2.88;;;1.10;;
39078;SDS011;24829;49.208;12.080;2023-05-10T12:00:31;3.72;;;1.30;;
39078;SDS011;24829;49.208;12.080;2023-05-10T12:02:57;1.85;;;0.70;;
39078;SDS011;24829;49.208;12.080;2023-05-10T12:05:23;1.38;;;0.60;;
39078;SDS011;24829;49.208;12.080;2023-05-10T12:07:49;2.67;;;0.65;;
39078;SDS011;24829;49.208;12.080;2023-05-10T12:10:14;0.82;;;0.57;;
39078;SDS011;24829;49.208;12.080;2023-05-10T12:12:42;1.60;;;0.70;;
39078;SDS011;24829;49.208;12.080;2023-05-10T12:15:18;0.70;;;0.50;;
39078;SDS011;24829;49.208;12.080;2023-05-10T12:17:45;2.65;;;0.50;;
39078;SDS011;24829;49.208;12.080;2023-05-10T12:20:18;2.53;;;0.52;;
39078;SDS011;24829;49.208;12.080;2023-05-10T12:22:56;0.57;;;0.50;;
39078;SDS011;24829;49.208;12.080;2023-05-10T12:25:22;0.70;;;0.40;;
39078;SDS011;24829;49.208;12.080;2023-05-10T12:30:19;2.17;;;0.50;;
39078;SDS011;24829;49.208;12.080;2023-05-10T12:32:46;1.38;;;0.70;;
39078;SDS011;24829;49.208;12.080;2023-05-10T12:35:12;1.77;;;0.60;;
39078;SDS011;24829;49.208;12.080;2023-05-10T12:37:37;1.98;;;0.70;;
39078;SDS011;24829;49.208;12.080;2023-05-10T12:40:06;2.15;;;0.50;;
39078;SDS011;24829;49.208;12.080;2023-05-10T12:42:33;12.73;;;0.70;;
39078;SDS011;24829;49.208;12.080;2023-05-10T12:45:00;2.75;;;0.80;;
39078;SDS011;24829;49.208;12.080;2023-05-10T12:47:26;0.90;;;0.60;;
39078;SDS011;24829;49.208;12.080;2023-05-10T12:49:52;1.77;;;0.50;;
39078;SDS011;24829;49.208;12.080;2023-05-10T12:52:17;0.70;;;0.50;;
39078;SDS011;24829;49.208;12.080;2023-05-10T12:54:43;0.60;;;0.47;;
39078;SDS011;24829;49.208;12.080;2023-05-10T12:57:08;0.93;;;0.60;;
39078;SDS011;24829;49.208;12.080;2023-05-10T12:59:34;0.70;;;0.40;;
39078;SDS011;24829;49.208;12.080;2023-05-10T13:01:59;1.23;;;0.63;;
39078;SDS011;24829;49.208;12.080;2023-05-10T13:04:26;1.13;;;0.68;;
39078;SDS011;24829;49.208;12.080;2023-05-10T13:06:51;1.05;;;0.75;;
39078;SDS011;24829;49.208;12.080;2023-05-10T13:09:17;1.52;;;0.80;;
39078;SDS011;24829;49.208;12.080;2023-05-10T13:11:42;1.70;;;0.80;;
39078;SDS011;24829;49.208;12.080;2023-05-10T13:14:08;1.00;;;0.80;;
39078;SDS011;24829;49.208;12.080;2023-05-10T13:16:34;2.78;;;0.70;;
39078;SDS011;24829;49.208;12.080;2023-05-10T13:18:59;3.72;;;0.90;;
39078;SDS011;24829;49.208;12.080;2023-05-10T13:21:25;1.83;;;0.70;;
39078;SDS011;24829;49.208;12.080;2023-05-10T13:23:50;1.75;;;0.90;;
39078;SDS011;24829;49.208;12.080;2023-05-10T13:26:16;0.82;;;0.60;;
39078;SDS011;24829;49.208;12.080;2023-05-10T13:28:42;1.13;;;0.57;;
39078;SDS011;24829;49.208;12.080;2023-05-10T13:31:08;2.58;;;0.77;;
39078;SDS011;24829;49.208;12.080;2023-05-10T13:33:33;2.70;;;0.63;;
39078;SDS011;24829;49.208;12.080;2023-05-10T13:35:59;3.17;;;1.83;;
39078;SDS011;24829;49.208;12.080;2023-05-10T13:38:24;2.70;;;0.90;;
39078;SDS011;24829;49.208;12.080;2023-05-10T13:40:50;2.00;;;0.95;;
39078;SDS011;24829;49.208;12.080;2023-05-10T13:43:17;1.15;;;0.80;;
39078;SDS011;24829;49.208;12.080;2023-05-10T13:45:43;1.00;;;0.73;;
39078;SDS011;24829;49.208;12.080;2023-05-10T13:48:09;3.05;;;0.80;;
39078;SDS011;24829;49.208;12.080;2023-05-10T13:50:34;1.10;;;0.60;;
39078;SDS011;24829;49.208;12.080;2023-05-10T13:53:00;1.33;;;0.70;;
39078;SDS011;24829;49.208;12.080;2023-05-10T13:55:25;1.00;;;0.80;;
39078;SDS011;24829;49.208;12.080;2023-05-10T13:57:51;1.27;;;0.63;;
39078;SDS011;24829;49.208;12.080;2023-05-10T14:00:17;3.22;;;0.60;;
39078;SDS011;24829;49.208;12.080;2023-05-10T14:02:42;2.15;;;0.63;;
39078;SDS011;24829;49.208;12.080;2023-05-10T14:05:08;1.15;;;0.50;;
39078;SDS011;24829;49.208;12.080;2023-05-10T14:07:34;1.38;;;0.65;;
39078;SDS011;24829;49.208;12.080;2023-05-10T14:09:59;1.00;;;0.68;;
39078;SDS011;24829;49.208;12.080;2023-05-10T14:12:25;0.90;;;0.50;;
39078;SDS011;24829;49.208;12.080;2023-05-10T14:14:52;1.55;;;0.70;;
39078;SDS011;24829;49.208;12.080;2023-05-10T14:17:17;2.85;;;0.50;;
39078;SDS011;24829;49.208;12.080;2023-05-10T14:19:43;0.90;;;0.60;;
39078;SDS011;24829;49.208;12.080;2023-05-10T14:22:08;3.33;;;0.80;;
39078;SDS011;24829;49.208;12.080;2023-05-10T14:24:34;1.70;;;0.80;;
39078;SDS011;24829;49.208;12.080;2023-05-10T14:26:59;2.78;;;0.77;;
39078;SDS011;24829;49.208;12.080;2023-05-10T14:29:25;1.35;;;0.90;;
39078;SDS011;24829;49.208;12.080;2023-05-10T14:31:51;0.80;;;0.70;;
39078;SDS011;24829;49.208;12.080;2023-05-10T14:34:16;11.75;;;1.02;;
39078;SDS011;24829;49.208;12.080;2023-05-10T14:36:42;1.15;;;0.50;;
39078;SDS011;24829;49.208;12.080;2023-05-10T14:39:07;1.45;;;0.60;;
39078;SDS011;24829;49.208;12.080;2023-05-10T14:41:35;0.70;;;0.65;;
39078;SDS011;24829;49.208;12.080;2023-05-10T14:44:00;2.20;;;0.70;;
39078;SDS011;24829;49.208;12.080;2023-05-10T14:46:28;1.75;;;0.47;;
39078;SDS011;24829;49.208;12.080;2023-05-10T14:48:54;0.63;;;0.50;;
39078;SDS011;24829;49.208;12.080;2023-05-10T14:51:20;1.08;;;0.50;;
39078;SDS011;24829;49.208;12.080;2023-05-10T14:53:47;14.93;;;1.60;;
39078;SDS011;24829;49.208;12.080;2023-05-10T14:56:13;2.58;;;0.65;;
39078;SDS011;24829;49.208;12.080;2023-05-10T14:58:39;1.95;;;0.70;;
39078;SDS011;24829;49.208;12.080;2023-05-10T15:01:04;1.90;;;1.10;;
39078;SDS011;24829;49.208;12.080;2023-05-10T15:03:30;4.20;;;0.80;;
39078;SDS011;24829;49.208;12.080;2023-05-10T15:05:56;1.42;;;0.73;;
39078;SDS011;24829;49.208;12.080;2023-05-10T15:08:22;1.42;;;0.73;;
39078;SDS011;24829;49.208;12.080;2023-05-10T15:10:49;1.15;;;0.77;;